Аэропорт
Нижневартовск (USNN)

 USNN / NJC
ЗЦ Екатеринбург
Тюмень (USTV)
Тюмень (USTV)
 60.94930, 76.48360  / 177 ft

 USNN 210030Z 12006MPS CAVOK M26/M29 Q1019 R03/410165 NOSIG RMK QFE760
 TAF USNN 202300Z 2100/2124 10005G10MPS 9999 BKN020 OVC050 FM210300 09006G12MPS 6000 -SN OVC016 TEMPO 2106/2115 1000 SHSN BKN005 BKN016CB BECMG 2118/2119 07003G08MPS
USNN_j_0220
показать схемы
Название сценария Тип сценария Flight Simulator 9 Flight Simulator X Prepar3D v2 Prepar3D v3 Prepar3D v4 Prepar3D v5 xPlane
Nizhnevartovsk USNN (P3Dv4.4+) бесплатный
Nizhnevartovsk USNN by Aleksei Nelaev бесплатный
USNN Scenery “Pearl of Siberia” бесплатный


2020 © VATRUS division (Privacy Policy)